createdAt,value
2018-07-02T00:01:21.094Z,43.51
2018-07-02T00:04:05.271Z,43.60
2018-07-02T00:06:57.982Z,44.22
2018-07-02T00:09:34.233Z,43.51
2018-07-02T00:12:07.195Z,44.16
2018-07-02T00:15:00.599Z,43.92
2018-07-02T00:17:35.044Z,43.68
2018-07-02T00:22:59.769Z,45.11
2018-07-02T00:25:36.564Z,44.81
2018-07-02T00:28:07.029Z,45.62
2018-07-02T00:30:37.151Z,44.44
2018-07-02T00:33:07.160Z,43.99
2018-07-02T00:35:37.187Z,44.29
2018-07-02T00:38:08.456Z,44.20
2018-07-02T00:40:43.060Z,44.25
2018-07-02T00:46:09.803Z,43.70
2018-07-02T00:48:50.496Z,44.70
2018-07-02T00:51:33.672Z,44.62
2018-07-02T00:54:15.297Z,45.13
2018-07-02T00:56:47.010Z,44.91
2018-07-02T00:59:19.036Z,44.54
2018-07-02T01:02:00.546Z,45.21
2018-07-02T01:04:44.532Z,44.70
2018-07-02T01:10:28.653Z,45.98
2018-07-02T01:13:18.254Z,47.66
2018-07-02T01:15:59.516Z,48.02
2018-07-02T01:18:44.563Z,47.69
2018-07-02T01:21:15.234Z,46.88
2018-07-02T01:23:45.468Z,46.74
2018-07-02T01:29:11.993Z,48.10
2018-07-02T01:31:45.535Z,48.74
2018-07-02T01:34:15.751Z,49.44
2018-07-02T01:36:48.387Z,48.65
2018-07-02T01:39:31.527Z,48.83
2018-07-02T01:42:13.584Z,49.64
2018-07-02T01:47:39.478Z,47.91
2018-07-02T01:50:15.391Z,49.10
2018-07-02T01:52:45.671Z,49.06
2018-07-02T01:55:15.723Z,48.80
2018-07-02T01:57:45.667Z,49.70
2018-07-02T02:00:15.677Z,48.83
2018-07-02T02:02:45.523Z,50.12
2018-07-02T02:05:15.823Z,50.17
2018-07-02T02:07:45.831Z,50.09
2018-07-02T02:10:39.010Z,50.26
2018-07-02T02:13:14.147Z,50.83
2018-07-02T02:15:44.971Z,50.67
2018-07-02T02:18:15.858Z,50.04
2018-07-02T02:20:46.201Z,50.85
2018-07-02T02:26:04.892Z,51.57
2018-07-02T02:28:43.354Z,50.76
2018-07-02T02:31:15.194Z,51.70
2018-07-02T02:33:45.718Z,49.32
2018-07-02T02:36:15.623Z,48.70
2018-07-02T02:43:50.546Z,48.84
2018-07-02T02:46:42.927Z,51.13
2018-07-02T02:49:16.435Z,51.37
2018-07-02T02:51:46.436Z,49.94
2018-07-02T02:54:21.229Z,53.25
2018-07-02T02:56:55.038Z,52.88
2018-07-02T03:02:15.723Z,52.98
2018-07-02T03:04:49.319Z,52.41
2018-07-02T03:07:29.990Z,53.21
2018-07-02T03:10:17.299Z,52.52
2018-07-02T03:12:54.459Z,53.21
2018-07-02T03:15:25.516Z,52.79
2018-07-02T03:17:56.304Z,53.94
2018-07-02T03:20:26.317Z,54.44
2018-07-02T03:22:56.223Z,54.02
2018-07-02T03:25:26.118Z,53.30
2018-07-02T03:27:56.133Z,54.64
2018-07-02T03:30:26.500Z,54.69
2018-07-02T03:32:56.479Z,54.38
2018-07-02T03:35:26.500Z,54.37
2018-07-02T03:37:56.451Z,54.31
2018-07-02T03:40:26.329Z,54.89
2018-07-02T03:42:56.335Z,54.66
2018-07-02T03:45:26.279Z,53.24
2018-07-02T03:47:56.223Z,53.87
2018-07-02T03:55:55.344Z,55.04
2018-07-02T03:58:28.451Z,55.64
2018-07-02T04:01:08.839Z,55.92
2018-07-02T04:03:52.943Z,56.00
2018-07-02T04:06:25.743Z,55.29
2018-07-02T04:08:56.532Z,54.47
2018-07-02T04:11:37.493Z,54.01
2018-07-02T04:14:14.607Z,54.63
2018-07-02T04:16:46.247Z,54.83
2018-07-02T04:19:16.259Z,54.25
2018-07-02T04:21:46.655Z,54.02
2018-07-02T04:24:16.615Z,53.54
2018-07-02T04:26:53.280Z,52.46
2018-07-02T04:29:33.105Z,54.31
2018-07-02T04:32:13.055Z,53.30
2018-07-02T04:34:48.123Z,54.27
2018-07-02T04:37:26.634Z,52.28
2018-07-02T04:40:04.468Z,54.38
2018-07-02T04:42:43.075Z,53.52
2018-07-02T04:45:16.313Z,53.43
2018-07-02T04:47:47.818Z,54.19
2018-07-02T04:53:13.336Z,54.15
2018-07-02T04:55:46.206Z,53.43
2018-07-02T04:58:16.284Z,52.20
2018-07-02T05:00:46.364Z,52.03
2018-07-02T05:03:16.282Z,52.54
2018-07-02T05:05:46.279Z,52.76
2018-07-02T05:08:16.315Z,50.74
2018-07-02T05:10:54.176Z,51.73
2018-07-02T05:13:26.465Z,51.82
2018-07-02T05:20:53.505Z,51.57
2018-07-02T05:23:25.806Z,51.62
2018-07-02T05:25:56.620Z,52.64
2018-07-02T05:28:27.109Z,52.46
2018-07-02T05:34:04.728Z,50.69
2018-07-02T05:36:55.208Z,51.43
2018-07-02T05:39:26.113Z,50.16
2018-07-02T05:41:56.133Z,50.00
2018-07-02T06:02:06.167Z,49.55
2018-07-02T06:08:06.796Z,49.33
2018-07-02T06:13:25.073Z,48.72
2018-07-02T06:16:06.121Z,48.59
2018-07-02T06:18:48.315Z,49.10
2018-07-02T06:27:00.638Z,47.70
2018-07-02T06:29:36.164Z,47.65
2018-07-02T06:32:15.394Z,47.36
2018-07-02T06:34:52.615Z,47.70
2018-07-02T06:37:26.021Z,47.16
2018-07-02T06:46:23.020Z,46.72
2018-07-02T07:14:25.056Z,45.58
2018-07-02T07:17:10.660Z,45.65
2018-07-02T07:31:26.449Z,44.55
2018-07-02T07:37:58.009Z,42.34
2018-07-02T07:47:58.444Z,41.62
2018-07-02T07:50:37.378Z,41.38
2018-07-02T07:53:25.020Z,42.28
2018-07-02T07:55:54.812Z,40.78
2018-07-02T08:01:25.343Z,40.85
2018-07-02T08:03:55.310Z,42.31
2018-07-02T08:06:25.311Z,43.41
2018-07-02T08:08:55.143Z,41.02
2018-07-02T08:11:25.080Z,42.13
2018-07-02T08:13:55.028Z,41.48
2018-07-02T08:16:24.932Z,41.48
2018-07-02T08:18:54.861Z,39.67
2018-07-02T08:21:24.775Z,38.14
2018-07-02T08:23:54.576Z,39.15
2018-07-02T08:26:24.475Z,38.66
2018-07-02T08:28:54.591Z,38.59
2018-07-02T08:31:24.450Z,37.96
2018-07-02T08:33:54.359Z,37.30
2018-07-02T08:36:24.280Z,37.46
2018-07-02T08:38:54.263Z,36.63
2018-07-02T08:41:24.296Z,34.96
2018-07-02T08:43:54.671Z,36.38
2018-07-02T08:46:24.470Z,36.57
2018-07-02T08:48:54.443Z,35.81
2018-07-02T08:51:24.303Z,36.00
2018-07-02T08:53:54.223Z,36.72
2018-07-02T08:56:24.160Z,36.43
2018-07-02T08:58:54.107Z,36.05
2018-07-02T09:01:24.283Z,33.81
2018-07-02T09:03:54.122Z,34.38
2018-07-02T09:06:23.955Z,33.80
2018-07-02T09:08:53.848Z,33.67
2018-07-02T09:11:23.731Z,34.85
2018-07-02T09:13:54.967Z,34.49
2018-07-02T09:16:24.914Z,35.25
2018-07-02T09:18:54.814Z,35.46
2018-07-02T09:21:24.612Z,34.83
2018-07-02T09:23:54.502Z,36.12
2018-07-02T09:26:24.313Z,34.70
2018-07-02T09:28:54.541Z,36.46
2018-07-02T09:31:24.562Z,35.66
2018-07-02T09:33:54.481Z,34.76
2018-07-02T09:36:24.488Z,36.36
2018-07-02T09:38:54.281Z,34.54
2018-07-02T09:41:24.234Z,34.18
2018-07-02T09:43:54.083Z,34.85
2018-07-02T09:46:23.975Z,34.83
2018-07-02T09:48:53.901Z,34.18
2018-07-02T09:51:24.912Z,33.29
2018-07-02T09:53:54.913Z,33.40
2018-07-02T09:56:25.165Z,32.31
2018-07-02T09:58:55.062Z,33.56
2018-07-02T10:01:25.214Z,32.67
2018-07-02T10:03:55.482Z,31.86
2018-07-02T10:06:25.907Z,32.58
2018-07-02T10:08:55.813Z,31.76
2018-07-02T10:11:25.928Z,33.41
2018-07-02T10:13:55.920Z,32.03
2018-07-02T10:16:26.658Z,31.67
2018-07-02T10:18:58.056Z,31.54
2018-07-02T10:21:28.428Z,30.90
2018-07-02T10:23:58.610Z,29.83
2018-07-02T10:26:29.028Z,32.63
2018-07-02T10:28:59.257Z,31.00
2018-07-02T10:31:29.381Z,31.32
2018-07-02T10:33:59.639Z,32.27
2018-07-02T10:36:29.795Z,29.84
2018-07-02T10:38:59.833Z,30.28
2018-07-02T10:41:29.823Z,30.72
2018-07-02T10:44:00.746Z,30.56
2018-07-02T10:46:32.003Z,30.35
2018-07-02T10:49:02.015Z,30.39
2018-07-02T10:51:32.522Z,31.02
2018-07-02T10:54:02.576Z,30.29
2018-07-02T10:56:32.837Z,29.70
2018-07-02T10:59:02.971Z,30.20
2018-07-02T11:01:33.247Z,30.65
2018-07-02T11:04:03.362Z,29.93
2018-07-02T11:06:33.609Z,29.69
2018-07-02T11:09:03.815Z,28.64
2018-07-02T11:11:33.820Z,28.30
2018-07-02T11:14:04.489Z,29.02
2018-07-02T11:16:34.429Z,28.20
2018-07-02T11:19:04.445Z,29.25
2018-07-02T11:21:34.331Z,29.27
2018-07-02T11:24:04.487Z,30.17
2018-07-02T11:26:34.547Z,28.98
2018-07-02T11:29:04.589Z,30.37
2018-07-02T11:31:35.544Z,29.54
2018-07-02T11:34:05.394Z,29.15
2018-07-02T11:36:35.413Z,29.19
2018-07-02T11:39:08.717Z,29.26
2018-07-02T11:41:38.724Z,28.98
2018-07-02T11:44:08.876Z,27.59
2018-07-02T11:46:39.805Z,29.59
2018-07-02T11:49:10.676Z,29.27
2018-07-02T11:51:40.852Z,28.47
2018-07-02T11:54:11.090Z,29.61
2018-07-02T11:56:41.796Z,29.50
2018-07-02T11:59:12.049Z,28.68
2018-07-02T12:01:41.952Z,28.61
2018-07-02T12:04:12.366Z,28.54
2018-07-02T12:06:42.382Z,27.64
2018-07-02T12:09:13.020Z,28.09
2018-07-02T12:11:45.473Z,29.19
2018-07-02T12:14:15.619Z,27.78
2018-07-02T12:16:45.575Z,27.84
2018-07-02T12:19:15.647Z,28.27
2018-07-02T12:21:45.720Z,28.59
2018-07-02T12:24:15.740Z,28.46
2018-07-02T12:26:46.156Z,28.25
2018-07-02T12:29:16.044Z,28.16
2018-07-02T12:31:46.148Z,27.08
2018-07-02T12:34:16.431Z,28.35
2018-07-02T12:36:46.552Z,28.17
2018-07-02T12:39:17.167Z,27.84
2018-07-02T12:41:47.364Z,28.28
2018-07-02T12:44:17.752Z,27.53
2018-07-02T12:46:47.983Z,28.12
2018-07-02T12:49:18.337Z,28.17
2018-07-02T12:51:48.605Z,27.37
2018-07-02T12:54:20.915Z,27.63
2018-07-02T12:56:51.118Z,27.35
2018-07-02T12:59:21.358Z,28.31
2018-07-02T13:01:51.787Z,26.80
2018-07-02T13:04:21.979Z,27.01
2018-07-02T13:06:52.218Z,26.69
2018-07-02T13:09:23.179Z,27.08
2018-07-02T13:11:53.271Z,28.28
2018-07-02T13:14:23.899Z,26.37
2018-07-02T13:16:54.044Z,27.60
2018-07-02T13:19:24.079Z,27.34
2018-07-02T13:21:54.207Z,26.48
2018-07-02T13:24:24.197Z,26.30
2018-07-02T13:26:54.914Z,26.73
2018-07-02T13:29:26.027Z,26.27
2018-07-02T13:31:55.995Z,26.28
2018-07-02T13:34:25.907Z,27.13
2018-07-02T13:36:55.826Z,25.73
2018-07-02T13:39:25.824Z,26.26
2018-07-02T13:41:55.821Z,26.30
2018-07-02T13:44:25.718Z,24.90
2018-07-02T13:46:55.650Z,24.87
2018-07-02T13:49:25.751Z,27.17
2018-07-02T13:51:55.878Z,26.94
2018-07-02T13:54:25.950Z,25.66
2018-07-02T13:56:56.661Z,26.17
2018-07-02T13:59:30.072Z,26.66
2018-07-02T14:04:57.713Z,24.80
2018-07-02T14:18:41.709Z,25.77
2018-07-02T14:21:35.440Z,25.01
2018-07-02T14:24:09.128Z,25.95
2018-07-02T14:30:13.843Z,25.39
2018-07-02T14:39:02.905Z,25.76
2018-07-02T14:52:33.577Z,25.55
2018-07-02T14:55:03.997Z,24.88
2018-07-02T14:57:42.148Z,25.49
2018-07-02T15:19:40.383Z,23.93
2018-07-02T15:22:13.472Z,23.67
2018-07-02T15:24:47.499Z,24.95
2018-07-02T15:27:47.186Z,24.68
2018-07-02T15:30:17.462Z,24.71
2018-07-02T15:32:47.638Z,24.41
2018-07-02T15:43:27.232Z,24.81
2018-07-02T15:57:41.262Z,23.49
2018-07-02T16:09:39.381Z,24.00
2018-07-02T16:12:39.721Z,24.62
2018-07-02T16:36:48.347Z,24.69
2018-07-02T16:50:55.349Z,24.67
2018-07-02T16:53:43.824Z,25.28
2018-07-02T16:56:22.325Z,24.98
2018-07-02T17:25:28.231Z,25.87
2018-07-02T17:28:28.477Z,26.79
2018-07-02T17:41:14.043Z,26.71
2018-07-02T17:53:30.930Z,28.09
2018-07-02T18:02:56.036Z,27.80
2018-07-02T18:05:26.912Z,28.99
2018-07-02T18:10:54.412Z,29.44
2018-07-02T18:13:27.549Z,27.86
2018-07-02T18:15:57.563Z,28.62
2018-07-02T18:24:07.451Z,29.39
2018-07-02T18:26:37.390Z,31.28
2018-07-02T18:32:05.395Z,29.41
2018-07-02T18:34:50.069Z,30.63
2018-07-02T18:37:37.123Z,30.40
2018-07-02T18:40:17.132Z,29.61
2018-07-02T18:42:53.425Z,29.55
2018-07-02T18:45:24.503Z,29.87
2018-07-02T18:47:54.443Z,29.85
2018-07-02T18:50:29.993Z,30.24
2018-07-02T18:53:11.205Z,29.65
2018-07-02T19:05:46.832Z,30.85
2018-07-02T19:08:34.883Z,31.98
2018-07-02T19:11:09.758Z,31.17
2018-07-02T19:13:49.079Z,31.24
2018-07-02T19:16:31.567Z,30.92
2018-07-02T19:19:05.797Z,30.69
2018-07-02T19:21:45.180Z,30.57
2018-07-02T19:24:17.368Z,31.39
2018-07-02T19:26:53.213Z,31.03
2018-07-02T19:29:38.107Z,32.02
2018-07-02T19:32:33.280Z,31.45
2018-07-02T19:35:15.349Z,31.76
2018-07-02T19:37:45.198Z,32.29
2018-07-02T19:40:15.419Z,32.12
2018-07-02T19:43:00.092Z,31.19
2018-07-02T19:45:36.848Z,31.19
2018-07-02T19:48:07.574Z,31.67
2018-07-02T19:50:39.970Z,31.99
2018-07-02T19:53:20.813Z,31.41
2018-07-02T19:58:49.610Z,31.33
2018-07-02T20:01:19.707Z,31.25
2018-07-02T20:03:49.434Z,31.39
2018-07-02T20:06:19.939Z,31.25
2018-07-02T20:08:55.455Z,31.11
2018-07-02T20:11:26.422Z,31.27
2018-07-02T20:14:35.517Z,31.35
2018-07-02T20:17:25.043Z,31.86
2018-07-02T20:19:55.989Z,33.30
2018-07-02T20:22:25.904Z,31.89
2018-07-02T21:57:54.050Z,37.90
2018-07-02T22:00:28.203Z,38.34
2018-07-02T22:03:13.988Z,38.37
2018-07-02T22:05:47.816Z,38.29
2018-07-02T22:08:18.450Z,38.51
2018-07-02T22:10:49.230Z,37.11
2018-07-02T22:13:19.177Z,37.27
2018-07-02T22:15:48.978Z,38.06
2018-07-02T22:18:18.992Z,39.03
2018-07-02T22:20:48.959Z,39.05
2018-07-02T22:23:18.941Z,38.90
2018-07-02T22:25:50.686Z,38.10
2018-07-02T22:28:25.365Z,38.76
2018-07-02T22:30:56.865Z,38.03
2018-07-02T22:33:27.860Z,38.62
2018-07-02T22:35:58.628Z,38.90
2018-07-02T22:38:29.039Z,38.42
2018-07-02T22:41:00.105Z,38.46
2018-07-02T22:43:30.058Z,37.74
2018-07-02T22:46:01.416Z,38.60
2018-07-02T22:48:34.048Z,39.04
2018-07-02T22:51:09.385Z,39.81
2018-07-02T22:53:41.935Z,39.76
2018-07-02T22:56:12.447Z,40.88
2018-07-02T22:58:42.815Z,40.87
2018-07-02T23:01:13.095Z,39.08
2018-07-02T23:03:43.271Z,41.27
2018-07-02T23:06:13.263Z,41.67
2018-07-02T23:08:43.408Z,41.47
2018-07-02T23:11:13.458Z,42.55
2018-07-02T23:13:45.704Z,42.60
2018-07-02T23:16:18.383Z,43.14
2018-07-02T23:18:49.121Z,43.64
2018-07-02T23:21:21.171Z,44.53
2018-07-02T23:23:52.944Z,44.32
2018-07-02T23:26:24.789Z,43.25
2018-07-02T23:28:56.536Z,45.12
2018-07-02T23:31:28.721Z,45.76
2018-07-02T23:33:59.041Z,45.15
2018-07-02T23:36:29.753Z,45.33
2018-07-02T23:39:02.075Z,45.60
2018-07-02T23:41:32.750Z,46.82
2018-07-02T23:44:05.057Z,46.10
2018-07-02T23:46:37.304Z,46.63
2018-07-02T23:49:08.374Z,45.96
2018-07-02T23:51:39.880Z,46.17
2018-07-02T23:54:11.372Z,47.40
2018-07-02T23:56:41.779Z,47.64
2018-07-02T23:59:12.113Z,47.57
